Dunedin (NZDN)

Aerodrome — Elev 4
New Zealand
S045.55.41.002 E170.11.53.999
Loading chart...

Current Weather

NZDN 240030Z 32009KT 280V010 42KM NCD 22/12 Q1010 RMK SWAMPY 29011KT AUTO VATSIM

Published 33 minutes ago

Airport Activity

Loading chart...
Loading chart...

Standard ATC Positions

CallsignRadio Name / Freq / Voice Room / TypeFrequencyVoice RoomType
NZCH-S_CTR Christchurch Control
129.300
nzch-s_ctr
129.300nzch-s_ctr
NZDN_TWR Dunedin Tower
120.700
nzdn_twr
120.700nzdn_twr
NZDN_ATIS Dunedin ATIS
126.450
nzdn_atis
126.450nzdn_atis
UNICOM NZZC UNICOM
122.800
unicom_nzzc
122.800unicom_nzzc

Event ATC Positions

This airport has control positions that are designated for use only during major events.
These positions should not be staffed unless specifically activated by the VATNZ Airspace Director as part of an official VATNZ event.

CallsignRadio Name / Freq / Voice Room / TypeFrequencyVoice RoomType
NZCH-D_CTR Christchurch Control
129.200
nzch-d_ctr
129.200nzch-d_ctr
NZDN_GND Dunedin Ground
128.500
nzdn_gnd
128.500nzdn_gnd
NZDN_DEL Dunedin Delivery
128.400
nzdn_del
128.400nzdn_del

Charts